Time;durP1;ratioP1;P1;durP2;ratioP2;P2;SDS_P1;SDS_P2;PMS_P1;PMS_P2;Temp;Humidity;BMP_temperature;BMP_pressure;BME280_temperature;BME280_humidity;BME280_pressure;Samples;Min_cycle;Max_cycle;Signal;HPM_P1;HPM_P2
2022/03/24 00:00:47;;;;;;;36.86;25.16;;;;;;;2.26;47.84;101613.05;465125;114;922801;-67
2022/03/24 00:01:50;;;;;;;42.41;25.56;;;;;;;2.25;47.98;101614.07;464470;114;922557;-67
2022/03/24 00:02:54;;;;;;;35.71;24.11;;;;;;;2.26;48.07;101618.44;463709;114;922577;-68
2022/03/24 00:03:57;;;;;;;35.69;26.16;;;;;;;2.26;48.21;101604.16;463603;114;930672;-70
2022/03/24 00:05:01;;;;;;;37.06;26.36;;;;;;;2.27;48.32;101606.69;464793;114;930483;-70
2022/03/24 00:06:04;;;;;;;37.69;25.41;;;;;;;2.29;48.47;101607.42;462891;113;922577;-70
2022/03/24 00:07:07;;;;;;;33.39;24.52;;;;;;;2.29;48.55;101607.42;464416;114;930410;-70
2022/03/24 00:08:12;;;;;;;33.18;24.63;;;;;;;2.30;48.67;101600.20;463515;114;922985;-69
2022/03/24 00:09:15;;;;;;;35.71;24.84;;;;;;;2.31;48.66;101609.98;465193;114;922535;-69
2022/03/24 00:10:19;;;;;;;31.93;24.29;;;;;;;2.30;48.64;101605.58;465342;114;922660;-69
2022/03/24 00:11:23;;;;;;;29.79;23.81;;;;;;;2.30;48.62;101595.67;464435;113;922700;-68
2022/03/24 00:12:27;;;;;;;35.83;25.21;;;;;;;2.29;48.53;101604.73;464258;114;922573;-68
2022/03/24 00:13:30;;;;;;;34.28;24.15;;;;;;;2.29;48.59;101599.34;462343;114;923047;-68
2022/03/24 00:14:34;;;;;;;34.48;25.29;;;;;;;2.30;48.62;101598.36;463920;114;923001;-69
2022/03/24 00:15:37;;;;;;;35.18;24.96;;;;;;;2.30;48.60;101590.30;464636;114;922477;-71
2022/03/24 00:16:41;;;;;;;38.62;26.32;;;;;;;2.30;48.69;101584.91;465204;114;930513;-68
2022/03/24 00:17:44;;;;;;;34.47;24.72;;;;;;;2.31;48.66;101589.31;465223;114;930515;-68
2022/03/24 00:18:48;;;;;;;32.59;25.43;;;;;;;2.31;48.60;101583.92;464050;114;923080;-68
2022/03/24 00:19:52;;;;;;;34.82;24.94;;;;;;;2.31;48.59;101591.14;465201;114;930401;-69
2022/03/24 00:20:55;;;;;;;36.79;24.59;;;;;;;2.31;48.61;101583.92;465218;114;922515;-69
2022/03/24 00:21:58;;;;;;;35.71;24.93;;;;;;;2.30;48.63;101587.59;465183;114;922592;-69
2022/03/24 00:23:02;;;;;;;34.66;24.77;;;;;;;2.30;48.64;101579.53;464562;114;922570;-69
2022/03/24 00:24:07;;;;;;;36.58;24.21;;;;;;;2.30;48.66;101586.75;462911;114;922808;-68
2022/03/24 00:25:11;;;;;;;39.28;26.27;;;;;;;2.30;48.77;101576.84;463602;114;922917;-69
2022/03/24 00:26:15;;;;;;;34.02;24.36;;;;;;;2.30;48.74;101575.98;463879;114;922465;-68
2022/03/24 00:27:19;;;;;;;32.95;24.25;;;;;;;2.29;48.67;101577.81;462784;114;930558;-69
2022/03/24 00:28:22;;;;;;;43.07;25.23;;;;;;;2.30;48.70;101573.29;464384;114;922951;-69
2022/03/24 00:29:26;;;;;;;35.56;24.91;;;;;;;2.29;48.63;101574.27;461422;114;922666;-69
2022/03/24 00:30:29;;;;;;;34.91;24.16;;;;;;;2.30;48.64;101575.98;460382;114;922668;-68
2022/03/24 00:31:34;;;;;;;34.43;25.12;;;;;;;2.30;48.72;101575.98;460504;114;922532;-68
2022/03/24 00:32:38;;;;;;;41.56;25.94;;;;;;;2.31;48.81;101572.31;460671;114;922448;-70
2022/03/24 00:33:42;;;;;;;33.16;24.02;;;;;;;2.31;48.90;101572.31;461707;114;930528;-67
2022/03/24 00:34:45;;;;;;;32.95;24.69;;;;;;;2.31;48.91;101578.55;461767;114;922554;-68
2022/03/24 00:35:48;;;;;;;35.88;24.61;;;;;;;2.30;48.88;101571.45;460630;114;922790;-69
2022/03/24 00:36:52;;;;;;;34.96;23.24;;;;;;;2.30;48.88;101568.77;460615;114;922922;-69
2022/03/24 00:37:55;;;;;;;35.58;24.54;;;;;;;2.31;48.83;101569.62;460601;114;923514;-69
2022/03/24 00:38:59;;;;;;;31.92;23.81;;;;;;;2.30;48.89;101566.08;460641;114;930443;-70
2022/03/24 00:40:07;;;;;;;34.61;23.87;;;;;;;2.30;48.89;101570.60;461706;114;922596;-70
2022/03/24 00:41:08;;;;;;;39.58;25.79;;;;;;;2.28;48.91;101573.42;461724;113;922819;-70
2022/03/24 00:42:11;;;;;;;36.01;25.76;;;;;;;2.27;48.89;101568.17;461851;114;922490;-65
2022/03/24 00:43:14;;;;;;;33.96;24.28;;;;;;;2.25;48.82;101572.86;461229;114;923061;-70
2022/03/24 00:44:19;;;;;;;34.86;24.92;;;;;;;2.23;48.72;101570.30;460526;114;922545;-67
2022/03/24 00:45:23;;;;;;;37.25;24.82;;;;;;;2.21;48.74;101560.64;451565;117;922584;-70
2022/03/24 00:46:26;;;;;;;36.12;25.13;;;;;;;2.19;48.72;101562.64;453111;114;922757;-68
2022/03/24 00:47:30;;;;;;;36.68;24.67;;;;;;;2.17;48.74;101567.29;461758;114;931130;-70
2022/03/24 00:48:33;;;;;;;36.14;25.33;;;;;;;2.14;48.75;101563.05;461918;114;922652;-68
2022/03/24 00:49:37;;;;;;;43.75;25.73;;;;;;;2.12;48.80;101556.94;461695;114;922563;-69
2022/03/24 00:50:41;;;;;;;38.35;24.84;;;;;;;2.10;48.84;101557.07;461846;114;922746;-69
2022/03/24 00:51:46;;;;;;;36.84;25.36;;;;;;;2.09;48.91;101555.36;461783;114;922699;-68
2022/03/24 00:52:49;;;;;;;34.06;25.51;;;;;;;2.08;48.96;101559.06;461930;114;922732;-68
2022/03/24 00:53:53;;;;;;;34.60;24.30;;;;;;;2.06;48.96;101558.34;461110;114;930509;-69
2022/03/24 00:54:56;;;;;;;38.56;24.48;;;;;;;2.05;49.10;101559.32;460389;114;922572;-68
2022/03/24 00:56:00;;;;;;;32.23;24.59;;;;;;;2.03;49.19;101560.46;460465;114;930475;-67
2022/03/24 00:57:03;;;;;;;39.51;26.16;;;;;;;2.01;49.25;101548.98;460465;114;930674;-69
2022/03/24 00:58:07;;;;;;;37.30;25.29;;;;;;;1.99;49.29;101548.25;460553;114;922972;-69
2022/03/24 00:59:10;;;;;;;42.69;25.78;;;;;;;1.97;49.32;101540.34;460405;114;930453;-67
2022/03/24 01:00:16;;;;;;;41.68;24.36;;;;;;;1.97;49.40;101547.55;461506;114;922543;-68
2022/03/24 01:01:20;;;;;;;30.76;24.69;;;;;;;1.96;49.52;101546.70;460512;114;922693;-68
2022/03/24 01:02:25;;;;;;;36.48;25.71;;;;;;;1.97;49.57;101550.24;460218;114;922602;-68
2022/03/24 01:03:29;;;;;;;33.28;24.99;;;;;;;1.97;49.59;101544.86;460404;114;922533;-70
2022/03/24 01:04:32;;;;;;;37.61;25.30;;;;;;;1.96;49.54;101549.39;460556;114;922571;-70
2022/03/24 01:05:37;;;;;;;36.81;24.92;;;;;;;1.95;49.56;101542.30;460437;114;930554;-70
2022/03/24 01:06:41;;;;;;;41.14;26.10;;;;;;;1.92;49.60;101542.59;460392;114;922586;-69
2022/03/24 01:07:46;;;;;;;39.20;25.85;;;;;;;1.91;49.61;101545.41;460894;114;922445;-69
2022/03/24 01:08:50;;;;;;;36.46;25.51;;;;;;;1.88;49.73;101541.13;461727;114;922540;-70
2022/03/24 01:09:55;;;;;;;34.92;24.18;;;;;;;1.86;49.76;101544.96;460722;114;923000;-71
2022/03/24 01:10:58;;;;;;;43.54;25.31;;;;;;;1.83;49.87;101542.52;460777;114;922589;-70
2022/03/24 01:12:03;;;;;;;37.66;25.11;;;;;;;1.81;49.96;101537.30;460938;114;922898;-70
2022/03/24 01:13:07;;;;;;;37.57;24.90;;;;;;;1.80;50.03;101537.43;462127;114;930409;-69
2022/03/24 01:14:11;;;;;;;35.40;24.73;;;;;;;1.77;50.11;101534.99;462227;114;922298;-69
2022/03/24 01:15:17;;;;;;;36.36;24.06;;;;;;;1.76;50.15;101531.48;461736;114;922455;-68
2022/03/24 01:16:23;;;;;;;33.62;23.61;;;;;;;1.73;50.25;101529.05;460835;114;922445;-68
2022/03/24 01:17:26;;;;;;;35.79;25.39;;;;;;;1.72;50.28;101529.17;460797;114;922507;-69
2022/03/24 01:18:34;;;;;;;35.85;22.80;;;;;;;1.70;50.32;101525.79;460831;114;922467;-68
2022/03/24 01:19:35;;;;;;;34.03;24.31;;;;;;;1.67;50.41;101526.89;460603;114;923756;-69
2022/03/24 01:20:39;;;;;;;36.79;24.25;;;;;;;1.66;50.46;101531.41;461033;114;922783;-68
2022/03/24 01:21:42;;;;;;;34.01;24.34;;;;;;;1.64;50.55;101535.23;462045;114;930559;-70
2022/03/24 01:22:46;;;;;;;32.13;22.93;;;;;;;1.61;50.66;101528.28;462121;114;930475;-69
2022/03/24 01:23:53;;;;;;;37.92;25.04;;;;;;;1.60;50.75;101531.09;465941;113;930531;-69
2022/03/24 01:24:56;;;;;;;40.78;25.14;;;;;;;1.58;50.86;101530.39;464526;113;922470;-69
2022/03/24 01:26:04;;;;;;;36.18;24.57;;;;;;;1.56;50.82;101529.66;461674;114;922620;-70
2022/03/24 01:27:07;;;;;;;33.09;24.07;;;;;;;1.55;50.90;101531.50;460437;114;923084;-67
2022/03/24 01:28:11;;;;;;;32.80;23.28;;;;;;;1.54;50.89;101534.34;460520;114;923029;-70
2022/03/24 01:29:14;;;;;;;35.36;24.29;;;;;;;1.52;51.02;101530.92;459027;113;930593;-69
2022/03/24 01:30:17;;;;;;;35.15;24.49;;;;;;;1.51;51.12;101524.70;457833;115;922574;-70
2022/03/24 01:31:22;;;;;;;38.09;24.49;;;;;;;1.52;51.12;101522.86;457701;115;930541;-67
2022/03/24 01:32:27;;;;;;;31.41;23.52;;;;;;;1.50;51.16;101522.98;457894;115;922760;-68
2022/03/24 01:33:31;;;;;;;38.08;25.09;;;;;;;1.50;51.23;101519.45;458005;115;922680;-69
2022/03/24 01:34:35;;;;;;;43.74;26.31;;;;;;;1.49;51.24;101523.97;458022;115;922737;-69
2022/03/24 01:35:39;;;;;;;39.07;25.74;;;;;;;1.49;51.30;101521.28;455962;115;922754;-70
2022/03/24 01:36:42;;;;;;;37.03;26.34;;;;;;;1.47;51.42;101515.20;454114;115;922583;-66
2022/03/24 01:37:45;;;;;;;37.32;24.95;;;;;;;1.46;51.40;101513.50;457572;115;922547;-69
2022/03/24 01:38:49;;;;;;;40.10;25.88;;;;;;;1.47;51.36;101517.04;457975;115;922638;-69
2022/03/24 01:39:53;;;;;;;40.01;25.51;;;;;;;1.46;51.39;101518.88;455825;115;923018;-68
2022/03/24 01:40:58;;;;;;;40.34;26.17;;;;;;;1.47;51.25;101519.73;457664;115;922767;-68
2022/03/24 01:42:01;;;;;;;38.81;26.29;;;;;;;1.46;51.22;101521.56;457864;115;922501;-71
2022/03/24 01:43:08;;;;;;;36.64;26.14;;;;;;;1.46;51.12;101518.88;448975;118;922773;-71
2022/03/24 01:44:13;;;;;;;40.04;26.55;;;;;;;1.47;51.10;101514.36;449579;115;922862;-69
2022/03/24 01:45:17;;;;;;;40.18;26.42;;;;;;;1.49;51.03;101520.45;455839;115;922631;-68
2022/03/24 01:46:24;;;;;;;36.54;26.33;;;;;;;1.51;50.94;101521.16;457683;115;923127;-68
2022/03/24 01:47:27;;;;;;;36.52;25.94;;;;;;;1.52;50.80;101518.34;457457;115;930492;-67
2022/03/24 01:48:31;;;;;;;43.21;27.90;;;;;;;1.54;50.68;101519.07;457925;115;922593;-69
2022/03/24 01:49:37;;;;;;;42.21;26.69;;;;;;;1.55;50.61;101525.27;455063;115;922678;-68
2022/03/24 01:50:40;;;;;;;39.97;26.31;;;;;;;1.54;50.50;101521.77;454701;115;922607;-69
2022/03/24 01:51:43;;;;;;;42.85;27.46;;;;;;;1.53;50.50;101522.73;455127;115;922768;-68
2022/03/24 01:52:47;;;;;;;40.75;27.42;;;;;;;1.52;50.53;101522.86;454183;115;922665;-69
2022/03/24 01:53:51;;;;;;;43.74;27.78;;;;;;;1.51;50.46;101523.84;454750;115;922602;-70
2022/03/24 01:54:57;;;;;;;45.93;28.06;;;;;;;1.50;50.39;101522.14;455320;115;923701;-70
2022/03/24 01:56:00;;;;;;;41.93;27.01;;;;;;;1.48;50.33;101521.44;457649;115;922597;-70
2022/03/24 01:57:04;;;;;;;41.49;26.68;;;;;;;1.46;50.33;101520.70;457958;115;922884;-69
2022/03/24 01:58:09;;;;;;;37.21;26.95;;;;;;;1.44;50.22;101517.29;456634;115;930562;-68
2022/03/24 01:59:14;;;;;;;40.67;27.17;;;;;;;1.43;50.29;101515.61;454805;115;922988;-68
2022/03/24 02:00:19;;;;;;;36.21;25.74;;;;;;;1.42;50.25;101516.59;454980;115;923148;-68
2022/03/24 02:01:34;;;;;;;39.65;25.88;;;;;;;1.39;50.34;101517.69;457152;115;922596;-68
2022/03/24 02:02:37;;;;;;;37.11;24.89;;;;;;;1.38;50.43;101517.84;456493;115;922589;-71
2022/03/24 02:03:41;;;;;;;38.95;26.16;;;;;;;1.36;50.60;101515.28;455510;115;922598;-70
2022/03/24 02:04:45;;;;;;;34.85;25.68;;;;;;;1.34;50.62;101516.39;454013;115;922624;-70
2022/03/24 02:05:48;;;;;;;34.87;25.15;;;;;;;1.33;50.68;101511.99;448927;118;922599;-69
2022/03/24 02:06:53;;;;;;;38.01;24.81;;;;;;;1.31;50.69;101509.46;441638;120;923017;-69
2022/03/24 02:07:56;;;;;;;38.67;25.49;;;;;;;1.31;50.80;101511.30;440336;118;922651;-71
2022/03/24 02:09:02;;;;;;;36.17;25.44;;;;;;;1.33;50.99;101506.62;438952;120;922618;-69
2022/03/24 02:10:07;;;;;;;38.78;25.01;;;;;;;1.36;50.97;101507.23;436927;120;930393;-68
2022/03/24 02:11:11;;;;;;;40.07;26.56;;;;;;;1.39;50.89;101508.78;445961;118;922531;-69
2022/03/24 02:12:15;;;;;;;32.33;25.37;;;;;;;1.38;50.70;101505.23;449184;118;922582;-68
2022/03/24 02:13:18;;;;;;;35.72;24.58;;;;;;;1.37;50.69;101510.77;449267;118;922722;-69
2022/03/24 02:14:21;;;;;;;35.48;24.18;;;;;;;1.36;50.78;101511.75;446809;118;922685;-69
2022/03/24 02:15:26;;;;;;;37.81;25.65;;;;;;;1.35;50.87;101507.34;447079;118;922698;-68
2022/03/24 02:16:38;;;;;;;35.37;24.21;;;;;;;1.32;50.84;101505.80;447036;118;923057;-69
2022/03/24 02:17:41;;;;;;;34.83;25.06;;;;;;;1.30;50.89;101505.06;447142;118;922559;-69
2022/03/24 02:18:46;;;;;;;40.34;25.61;;;;;;;1.25;51.09;101493.88;441871;120;922564;-69
2022/03/24 02:19:49;;;;;;;35.71;24.98;;;;;;;1.25;51.09;101493.88;439033;120;922667;-68
2022/03/24 02:20:53;;;;;;;37.04;25.24;;;;;;;1.22;51.13;101492.28;446355;118;930499;-69
2022/03/24 02:21:59;;;;;;;35.31;25.40;;;;;;;1.21;51.19;101493.27;447332;118;930502;-69
2022/03/24 02:23:02;;;;;;;34.97;25.73;;;;;;;1.19;51.24;101489.02;447891;118;923923;-69
2022/03/24 02:24:06;;;;;;;39.94;26.77;;;;;;;1.17;51.37;101501.72;449427;118;923127;-67
2022/03/24 02:25:09;;;;;;;39.52;26.78;;;;;;;1.13;51.35;101503.83;449445;118;923265;-69
2022/03/24 02:26:13;;;;;;;36.81;25.64;;;;;;;1.10;51.39;101501.39;449362;118;923269;-69
2022/03/24 02:27:16;;;;;;;37.76;24.78;;;;;;;1.07;51.52;101507.04;449140;118;923326;-68
2022/03/24 02:28:22;;;;;;;38.81;26.21;;;;;;;1.04;51.56;101493.89;448726;118;922491;-69
2022/03/24 02:29:25;;;;;;;37.82;26.27;;;;;;;1.02;51.60;101495.84;443440;117;922619;-70
2022/03/24 02:30:29;;;;;;;36.38;25.68;;;;;;;1.02;51.61;101492.30;463933;114;922967;-68
2022/03/24 02:31:38;;;;;;;38.85;27.15;;;;;;;1.00;51.64;101492.42;463394;114;922644;-68
2022/03/24 02:32:40;;;;;;;35.77;25.13;;;;;;;1.00;51.73;101488.88;464581;113;922519;-69
2022/03/24 02:33:43;;;;;;;42.34;26.79;;;;;;;0.99;51.75;101490.75;463283;114;922933;-70
2022/03/24 02:34:47;;;;;;;38.13;26.12;;;;;;;0.98;51.85;101485.50;464176;114;922614;-70
2022/03/24 02:35:52;;;;;;;45.95;27.85;;;;;;;0.97;51.94;101484.64;464311;114;923101;-68
2022/03/24 02:36:55;;;;;;;31.06;25.12;;;;;;;0.96;52.01;101490.99;462898;114;922552;-69
2022/03/24 02:37:59;;;;;;;38.54;27.50;;;;;;;0.94;52.04;101487.58;462160;114;930472;-69
2022/03/24 02:39:02;;;;;;;43.27;26.69;;;;;;;0.96;52.09;101492.82;464788;114;922911;-68
2022/03/24 02:40:07;;;;;;;37.72;26.74;;;;;;;0.95;52.20;101491.11;463017;114;923096;-69
2022/03/24 02:41:10;;;;;;;45.51;27.37;;;;;;;0.94;52.23;101492.94;465155;114;923052;-69
2022/03/24 02:42:16;;;;;;;42.85;27.67;;;;;;;0.94;52.31;101498.31;464778;114;922842;-69
2022/03/24 02:43:20;;;;;;;39.78;27.73;;;;;;;0.95;52.31;101500.02;463575;114;922628;-67
2022/03/24 02:44:26;;;;;;;38.76;26.92;;;;;;;0.96;52.29;101493.67;463838;114;922934;-69
2022/03/24 02:45:30;;;;;;;38.32;26.01;;;;;;;0.96;52.29;101499.05;463679;114;922598;-69
2022/03/24 02:46:33;;;;;;;44.35;27.99;;;;;;;0.96;52.25;101499.05;464119;114;922491;-70
2022/03/24 02:47:36;;;;;;;37.39;28.44;;;;;;;0.97;51.99;101495.39;463793;114;922553;-69
2022/03/24 02:48:40;;;;;;;44.03;27.75;;;;;;;0.97;51.99;101495.39;465027;114;930602;-68
2022/03/24 02:49:46;;;;;;;44.06;27.04;;;;;;;0.97;51.97;101492.70;462974;114;930650;-69
2022/03/24 02:50:49;;;;;;;43.49;27.76;;;;;;;0.97;51.88;101487.33;464423;114;922613;-68
2022/03/24 02:51:55;;;;;;;39.86;27.20;;;;;;;0.98;51.81;101491.72;463475;114;923375;-69
2022/03/24 02:52:58;;;;;;;43.53;28.01;;;;;;;0.99;51.70;101493.43;464605;114;922644;-69
2022/03/24 02:54:03;;;;;;;45.99;28.14;;;;;;;0.99;51.67;101492.58;465150;114;922695;-69
2022/03/24 02:55:08;;;;;;;47.52;29.07;;;;;;;1.00;51.67;101492.42;464630;113;922567;-69
2022/03/24 02:56:12;;;;;;;44.38;28.38;;;;;;;1.01;51.63;101494.13;464206;114;922986;-69
2022/03/24 02:57:16;;;;;;;47.43;29.71;;;;;;;1.02;51.49;101487.78;465178;114;922892;-66
2022/03/24 02:58:19;;;;;;;49.60;29.19;;;;;;;1.03;51.42;101494.87;463414;114;922952;-69
2022/03/24 02:59:23;;;;;;;42.99;29.15;;;;;;;1.02;51.39;101492.30;464825;114;930424;-70
2022/03/24 03:00:27;;;;;;;42.01;27.92;;;;;;;1.01;51.32;101485.22;464987;114;922627;-70
2022/03/24 03:01:31;;;;;;;48.32;29.45;;;;;;;1.01;51.34;101493.28;465114;113;923378;-67
2022/03/24 03:02:35;;;;;;;46.20;28.97;;;;;;;1.01;51.23;101490.59;465148;114;922922;-69
2022/03/24 03:03:39;;;;;;;42.36;28.10;;;;;;;1.01;51.22;101495.96;464078;114;922906;-70
2022/03/24 03:04:45;;;;;;;43.12;29.16;;;;;;;1.00;51.23;101489.73;462429;114;930603;-69
2022/03/24 03:05:49;;;;;;;45.03;27.82;;;;;;;1.01;51.19;101495.96;463143;114;923118;-69
2022/03/24 03:06:54;;;;;;;44.06;28.34;;;;;;;1.00;51.16;101495.11;464257;114;922577;-68
2022/03/24 03:07:57;;;;;;;47.12;28.42;;;;;;;1.00;51.10;101492.42;464357;114;930374;-70
2022/03/24 03:09:02;;;;;;;48.00;29.40;;;;;;;0.99;51.06;101493.43;463538;114;922501;-69
2022/03/24 03:10:06;;;;;;;46.44;28.40;;;;;;;0.98;51.06;101494.41;462201;114;930381;-68
2022/03/24 03:11:10;;;;;;;50.56;29.38;;;;;;;0.98;51.06;101488.19;463322;114;930715;-69
2022/03/24 03:12:13;;;;;;;44.80;28.06;;;;;;;0.99;51.05;101487.20;463890;114;922645;-69
2022/03/24 03:13:17;;;;;;;48.81;29.70;;;;;;;0.99;50.95;101489.89;464647;114;922534;-68
2022/03/24 03:14:21;;;;;;;42.27;28.40;;;;;;;0.98;50.84;101497.09;463619;114;923393;-69
2022/03/24 03:15:24;;;;;;;41.72;26.73;;;;;;;0.96;50.80;101493.67;465083;114;922623;-69
2022/03/24 03:16:28;;;;;;;46.34;28.14;;;;;;;0.95;50.80;101493.80;465101;114;922483;-69
2022/03/24 03:17:34;;;;;;;46.31;29.52;;;;;;;0.92;50.83;101486.02;464529;114;930334;-69
2022/03/24 03:18:37;;;;;;;43.21;29.43;;;;;;;0.91;50.82;101487.00;463197;114;922573;-68
2022/03/24 03:19:42;;;;;;;44.98;28.05;;;;;;;0.88;50.89;101490.81;465138;114;922490;-69
2022/03/24 03:20:47;;;;;;;53.36;29.13;;;;;;;0.85;50.94;101488.37;465000;114;930546;-69
2022/03/24 03:21:50;;;;;;;52.03;29.74;;;;;;;0.82;51.07;101486.81;463789;114;922752;-70
2022/03/24 03:22:54;;;;;;;41.94;28.09;;;;;;;0.82;51.11;101483.27;465142;114;922595;-69
2022/03/24 03:23:58;;;;;;;46.22;27.51;;;;;;;0.81;51.19;101489.62;463234;114;923198;-70
2022/03/24 03:25:01;;;;;;;49.62;29.01;;;;;;;0.79;51.31;101487.05;462975;114;922935;-68
2022/03/24 03:26:05;;;;;;;42.04;28.95;;;;;;;0.79;51.32;101488.88;455452;116;922619;-69
2022/03/24 03:27:09;;;;;;;41.95;27.56;;;;;;;0.77;51.34;101488.19;455918;114;930122;-69
2022/03/24 03:28:13;;;;;;;44.93;29.17;;;;;;;0.74;51.47;101483.91;463532;114;922512;-69
2022/03/24 03:29:17;;;;;;;43.81;28.66;;;;;;;0.72;51.53;101479.64;462779;114;922643;-70
2022/03/24 03:30:21;;;;;;;47.46;27.82;;;;;;;0.71;51.60;101486.02;461025;113;930296;-69
2022/03/24 03:31:25;;;;;;;43.97;28.28;;;;;;;0.69;51.61;101478.08;460945;114;922457;-68
2022/03/24 03:32:28;;;;;;;43.97;28.36;;;;;;;0.69;51.67;101482.59;461660;114;922913;-69
2022/03/24 03:33:38;;;;;;;44.83;28.46;;;;;;;0.69;51.71;101479.91;460670;114;922506;-70
2022/03/24 03:34:46;;;;;;;41.09;26.51;;;;;;;0.68;51.70;101480.88;460477;114;922974;-69
2022/03/24 03:35:47;;;;;;;44.32;28.98;;;;;;;0.66;51.74;101478.32;460040;114;922562;-68
2022/03/24 03:36:52;;;;;;;39.11;26.71;;;;;;;0.65;51.74;101476.64;460504;114;922769;-68
2022/03/24 03:37:55;;;;;;;44.47;28.14;;;;;;;0.64;51.67;101472.25;460415;114;922572;-68
2022/03/24 03:38:59;;;;;;;40.51;27.58;;;;;;;0.65;51.74;101465.05;460798;114;922490;-70
2022/03/24 03:40:03;;;;;;;44.97;29.10;;;;;;;0.66;51.83;101469.45;461307;114;922602;-67
2022/03/24 03:41:06;;;;;;;42.63;27.96;;;;;;;0.67;51.81;101473.81;461216;114;922545;-68
2022/03/24 03:42:10;;;;;;;44.08;28.84;;;;;;;0.67;51.74;101471.13;460548;114;922564;-69
2022/03/24 03:43:14;;;;;;;45.92;28.71;;;;;;;0.67;51.65;101463.93;461272;114;922610;-68
2022/03/24 03:44:19;;;;;;;46.99;28.28;;;;;;;0.68;51.64;101470.15;461397;114;922602;-67
2022/03/24 03:45:23;;;;;;;46.67;27.74;;;;;;;0.70;51.70;101465.52;461266;114;922635;-68
2022/03/24 03:46:26;;;;;;;40.85;27.79;;;;;;;0.72;51.69;101469.75;460410;114;930388;-68
2022/03/24 03:47:30;;;;;;;35.26;25.69;;;;;;;0.75;51.67;101463.30;460439;114;922803;-67
2022/03/24 03:48:34;;;;;;;43.84;27.83;;;;;;;0.76;51.59;101462.31;460433;114;922441;-66
2022/03/24 03:49:37;;;;;;;50.22;28.89;;;;;;;0.77;51.50;101466.70;460504;114;922654;-67
2022/03/24 03:50:43;;;;;;;40.80;27.97;;;;;;;0.76;51.48;101459.63;457586;114;922576;-70
2022/03/24 03:51:46;;;;;;;45.76;29.22;;;;;;;0.76;51.48;101463.17;460498;114;922881;-68
2022/03/24 03:52:50;;;;;;;50.83;29.99;;;;;;;0.77;51.54;101464.02;460584;114;922561;-69
2022/03/24 03:53:54;;;;;;;44.94;28.75;;;;;;;0.78;51.68;101458.50;460528;114;922602;-69
2022/03/24 03:54:57;;;;;;;46.06;26.95;;;;;;;0.79;51.74;101459.36;460500;114;922632;-69
2022/03/24 03:56:03;;;;;;;46.94;29.27;;;;;;;0.82;51.84;101459.11;461893;114;922507;-69
2022/03/24 03:57:06;;;;;;;41.32;28.62;;;;;;;0.87;51.91;101451.52;461604;114;923007;-69
2022/03/24 03:58:11;;;;;;;44.42;28.73;;;;;;;0.92;51.98;101454.66;461816;114;922758;-69
2022/03/24 03:59:14;;;;;;;39.89;28.10;;;;;;;0.96;51.86;101447.17;461752;114;922985;-69
2022/03/24 04:01:40;;;;;;;49.23;29.28;;;;;;;1.01;51.85;101451.17;460793;114;922837;-67
2022/03/24 04:02:44;;;;;;;49.70;28.79;;;;;;;1.01;51.74;101453.85;460509;114;922518;-69
2022/03/24 04:03:48;;;;;;;95.38;31.24;;;;;;;1.01;51.70;101448.48;460498;114;930333;-67
2022/03/24 04:04:51;;;;;;;52.91;29.44;;;;;;;1.02;51.76;101452.02;460521;114;930541;-67
2022/03/24 04:05:58;;;;;;;46.59;28.17;;;;;;;1.01;51.80;101442.26;461322;114;930420;-68
2022/03/24 04:07:01;;;;;;;44.20;26.98;;;;;;;1.01;51.82;101451.17;461758;114;922842;-67
2022/03/24 04:08:04;;;;;;;44.46;27.82;;;;;;;1.02;51.84;101454.70;460298;114;923028;-68
2022/03/24 04:09:08;;;;;;;44.60;27.53;;;;;;;1.03;51.80;101456.41;461104;114;922626;-70
2022/03/24 04:10:12;;;;;;;49.11;27.41;;;;;;;1.04;51.88;101456.30;461725;114;930398;-68
2022/03/24 04:11:15;;;;;;;42.06;27.85;;;;;;;1.06;51.79;101448.94;446895;118;922518;-70
2022/03/24 04:12:19;;;;;;;44.24;28.30;;;;;;;1.07;51.69;101452.48;449525;118;922727;-69
2022/03/24 04:13:23;;;;;;;48.08;28.61;;;;;;;1.06;51.58;101448.94;441934;119;923158;-67
2022/03/24 04:14:26;;;;;;;54.32;28.50;;;;;;;1.07;51.65;101447.95;449364;118;930542;-68
2022/03/24 04:15:29;;;;;;;54.57;28.72;;;;;;;1.08;51.62;101456.87;449443;118;923110;-68
2022/03/24 04:16:34;;;;;;;42.62;29.64;;;;;;;1.08;51.62;101448.81;441810;119;924766;-69
2022/03/24 04:17:38;;;;;;;42.21;28.51;;;;;;;1.09;51.65;101451.38;449484;118;922507;-69
2022/03/24 04:18:43;;;;;;;45.32;30.24;;;;;;;1.11;51.62;101453.91;441958;120;922778;-69
2022/03/24 04:19:46;;;;;;;45.46;29.48;;;;;;;1.11;51.55;101449.39;449415;118;922714;-67
2022/03/24 04:20:51;;;;;;;49.01;30.96;;;;;;;1.12;51.48;101448.41;441963;120;922537;-70
2022/03/24 04:21:54;;;;;;;48.73;30.76;;;;;;;1.12;51.48;101445.72;449417;117;930319;-68
2022/03/24 04:23:02;;;;;;;47.17;29.72;;;;;;;1.13;51.47;101447.43;439345;120;923199;-68
2022/03/24 04:24:07;;;;;;;53.15;31.01;;;;;;;1.12;51.53;101445.72;449385;118;930362;-67
2022/03/24 04:25:10;;;;;;;51.52;31.62;;;;;;;1.14;51.41;101448.28;435138;120;922703;-69
2022/03/24 04:26:15;;;;;;;50.39;30.42;;;;;;;1.14;51.47;101443.77;449211;118;930508;-69
2022/03/24 04:27:18;;;;;;;49.54;31.32;;;;;;;1.15;51.42;101445.47;441890;119;930461;-68
2022/03/24 04:28:22;;;;;;;51.19;30.17;;;;;;;1.15;51.40;101448.16;449515;117;930388;-68
2022/03/24 04:29:25;;;;;;;49.48;29.76;;;;;;;1.14;51.41;101443.77;442003;120;923180;-69
2022/03/24 04:30:28;;;;;;;46.76;30.18;;;;;;;1.13;51.39;101447.43;448778;117;923081;-70
2022/03/24 04:31:32;;;;;;;43.73;29.51;;;;;;;1.13;51.32;101443.89;460770;115;930830;-69
2022/03/24 04:32:35;;;;;;;49.51;29.69;;;;;;;1.11;51.38;101438.64;461316;114;922643;-69
2022/03/24 04:33:39;;;;;;;45.48;27.81;;;;;;;1.11;51.29;101445.84;462735;114;930433;-69
2022/03/24 04:34:42;;;;;;;47.39;30.12;;;;;;;1.08;51.30;101446.98;464123;114;922538;-68
2022/03/24 04:35:45;;;;;;;62.79;28.40;;;;;;;1.06;51.25;101448.08;462860;114;930444;-69
2022/03/24 04:36:49;;;;;;;43.98;27.98;;;;;;;1.04;51.26;101445.55;464528;114;930546;-69
2022/03/24 04:37:53;;;;;;;47.01;27.82;;;;;;;1.02;51.30;101447.50;463137;114;930468;-70
2022/03/24 04:38:56;;;;;;;40.11;28.27;;;;;;;1.01;51.51;101448.48;455318;116;930496;-69
2022/03/24 04:39:59;;;;;;;36.36;26.07;;;;;;;1.01;51.52;101450.31;455894;114;931159;-70
2022/03/24 04:41:04;;;;;;;37.67;26.36;;;;;;;1.01;51.62;101453.00;461515;114;922639;-70
2022/03/24 04:42:08;;;;;;;42.54;26.55;;;;;;;1.01;51.66;101453.85;461837;114;922527;-69
2022/03/24 04:43:13;;;;;;;37.55;25.54;;;;;;;1.01;51.66;101453.85;462518;114;923020;-69
2022/03/24 04:44:17;;;;;;;34.18;23.98;;;;;;;1.02;51.74;101450.19;463122;114;922652;-70
2022/03/24 04:45:21;;;;;;;40.96;27.21;;;;;;;1.03;51.74;101453.73;462911;114;922565;-68
2022/03/24 04:46:25;;;;;;;38.37;25.29;;;;;;;1.04;51.78;101452.75;464374;114;922590;-68
2022/03/24 04:47:28;;;;;;;39.94;27.20;;;;;;;1.04;51.71;101444.70;462237;114;930445;-69
2022/03/24 04:48:38;;;;;;;41.26;26.58;;;;;;;1.05;51.67;101451.74;464815;114;930582;-68
2022/03/24 04:49:42;;;;;;;41.07;26.68;;;;;;;1.05;51.64;101449.91;463699;114;930502;-70
2022/03/24 04:50:45;;;;;;;43.23;26.65;;;;;;;1.05;51.67;101443.69;463004;114;922706;-69
2022/03/24 04:51:49;;;;;;;46.13;26.87;;;;;;;1.06;51.76;101440.87;465161;114;923117;-68
2022/03/24 04:52:52;;;;;;;47.25;29.27;;;;;;;1.07;51.88;101430.99;463428;114;922569;-68